Keiser, AR (72351)

5:48 PM CDT on July 22, 2014 (GMT -0500)
Gilt Edge TN (KTNGILTE2) Elev 276 ft | 35.53 °N, 89.81 °W | Change Station

Current weather conditions updated 33 seconds ago

Overcast
Overcast
88.1 °F
Feels Like 97 °F
N
0.0
Wind Variable Wind from WSW
Gusts 4.0 mph

Tomorrow is forecast to be nearly the same temperature as today. Thundershowers late tomorrow night.

Today
High -- | Low -- °F
--% Chance of Precip.
Yesterday
High -- | Low -- °F
Precip. -- in
6:00 AM 8:12 PM
Waning Crescent, 14% visible
Pressure 30.06 in
Visibility 10.0 miles
Clouds Scattered Clouds 4500 ft
Heat Index 97 °F
Dew Point 74 °F
Humidity 63%
Rainfall 0.00 in
Snow Depth Not available.
UV 1.0 out of 12
Pollen 4.50 out of 12
Air Quality Not available.
Flu Activity Not available.
METAR KBYH 222052Z 00000KT 10SM SCT045 32/22 A3006

More Conditions Fewer Conditions

Pressure 30.06 in
Visibility 10.0 miles
Clouds Scattered Clouds 4500 ft
Heat Index 97 °F
Dew Point 74 °F
Humidity 63%
Rainfall 0.00 in
Snow Depth Not available.
UV 1.0 out of 12
Pollen 4.50 out of 12
Air Quality Not available.
Flu Activity Not available.
METAR KBYH 222052Z 00000KT 10SM SCT045 32/22 A3006

More Conditions Fewer Conditions

10-Day Weather Forecast

Almanac

Astronomy

Jul. 22, 2014 Rise Set
Actual Time 6:00 AM CDT 8:12 PM CDT
Civil Twilight 5:32 AM CDT 8:41 PM CDT
Nautical Twilight 4:56 AM CDT 9:16 PM CDT
Astronomical Twilight 4:18 AM CDT 9:54 PM CDT
Moon 2:32 AM CDT 4:51 PM CDT
Length of Visible Light 15h 09m
Length of Day
14h 11m
Tomorrow will be 1m 25s shorter.
Waning Crescent, 14% of the Moon is Illuminated
Today
Waning Crescent
Jul 26
New
Aug 3
First Quarter
Aug 10
Full
Aug 17
Last Quarter

Today's Extremes

State Highs State Lows

Community

WunderPhotos

Upload Photos

1,736,381 photos uploaded!

Nearby

Snow Depth

Station Depth Elevation
No new snow has been reported.

Earthquake Activity

City Distance Mag. Time & Date
No recent earthquake activity has been reported nearby.
Minimum magnitude displayed is 2.5.

Coastal Water Temperatures

Place Temperature
No Stations Reporting

Nearby Weather Stations

Station Location Temp. Heat Index Dew Point Humidity Wind Precip. Elev Updated Type
Gilt Edge TN, Gilt Edge, TN 88.1 °F 97 °F 74 °F 63% WSW  at  0.0 mph 0.00 in / hr 276 ft 5:48 PM CDT Normal
Munford, TN 86.7 °F 95 °F 74 °F 67% NNE  at  3.2 mph - / hr 394 ft 5:36 PM CDT Normal

Show More Stations Show Fewer Stations